Terminal Aerodrome Forecast
Issued by NWS Huntsville, AL

Home | Current Version | Previous Version | Text Only | Print | Product List | Glossary On
Versions: 1 2 3 4 5 6 7 8 9 10 11 12 13 14 15 16 17 18 19 20 21 22 23 24 25 26 27 28 29 30 31 32 33 34 35 36 37 38 39
000
FTUS44 KHUN 181259 AAA
TAFHSV
TAF AMD
KHSV 181259Z 1813/1912 34005KT P6SM -RA FEW030 OVC050
     FM181800 01004KT P6SM OVC050
     FM190300 01003KT P6SM SCT250=

USA.gov is the U.S. government's official web portal to all federal, state and local government web resources and services.